Tiempo atmosférico en la estación meteorológica de Anaga, Santa Cruz de Tenerife (19 m.)

Fecha
DESCASC
Temp. máxima en grados centígrados (hora)
DESCASC
Temp. mínima en grados centígrados (hora)
DESCASC
Temp. media en grados centígrados
DESCASC
Racha de viento máxima en m/sg (hora)
DESCASC
Velocidad máxima media en intervalos de 10 minutos(hora)
DESCASC
Precipitaciones diarias en mm
DESCASC
Precipitaciones de 00:00 a 06:00 en mm
DESCASC
Precipitaciones de 06:00 a 12:00 en mm
DESCASC
Precipitaciones de 12:00 a 18:00 en mm
DESCASC
Precipitaciones de 18:00 a 24:00 en mm
DESCASC
19-10-2017 26.8 (14:50) 22.4 (06:50) 24.6 8.06 (14:50) 3.33 (10:40) 0 0 0 0 0
18-10-2017 26.6 (15:30) 21.4 (08:00) 24 9.17 (18:10) 4.44 (02:10) 0 0 0 0 0
17-10-2017 28.7 (14:10) 22.5 (23:59) 25.6 11.94 (03:30) 6.39 (03:20) 0 0 0 0 0
16-10-2017 27.7 (15:50) 22.4 (07:30) 25.1 3.89 (14:30) 2.22 (16:10) 0 0 0 0 0
15-10-2017 33.7 (11:30) 24 (00:00) 28.9 8.06 (11:50) 2.78 (11:50) 0 0 0 0 0
14-10-2017 33.4 (11:50) 26.5 (00:00) 30 8.33 (03:50) 3.61 (05:20) 0 0 0 0 0
13-10-2017 31.9 (16:30) 20.7 (00:00) 26.3 4.44 (15:00) 2.22 (06:40) 0 0 0 0 0
12-10-2017 27.2 (13:50) 19.4 (00:00) 23.3 4.44 (11:10) 2.22 (14:20) 0 0 0 0 0
11-10-2017 26.2 (15:10) 18.7 (00:00) 22.5 5.83 (17:00) 2.5 (15:40) 0 0 0 0 0
10-10-2017 25.8 (13:40) 18.2 (00:00) 22 4.44 (16:30) 2.5 (12:40) 0 0 0 0 0
09-10-2017 26.2 (14:00) 18.4 (00:00) 22.3 5.56 (16:20) 2.78 (16:20) 0 0 0 0 0
08-10-2017 26.5 (16:40) 20.1 (00:00) 23.3 6.11 (14:50) 3.33 (15:00) 0 0 0 0 0
07-10-2017 26.8 (13:00) 19.9 (00:00) 23.3 7.22 (11:20) 3.61 (13:30) 0 0 0 0 0
06-10-2017 26.4 (13:40) 19 (00:00) 22.7 8.06 (14:00) 3.61 (14:30) 0 0 0 0 0
05-10-2017 26.1 (13:40) 20.8 (00:00) 23.4 5 (10:50) 2.5 (13:30) 0 0 0 0 0
04-10-2017 27.4 (17:10) 20.9 (00:00) 24.1 7.22 (16:20) 3.61 (16:30) 0 0 0 0 0
03-10-2017 29.4 (16:00) 22.5 (00:00) 25.9 10.28 (04:40) 5 (04:50) 0 0 0 0 0
02-10-2017 27.2 (15:10) 22 (00:00) 24.6 11.11 (14:10) 5.28 (19:40) 0 0 0 0 0
01-10-2017 26.6 (15:00) 22.4 (00:00) 24.5 12.5 (17:50) 6.39 (16:10) 0 0 0 0 0
30-09-2017 26.6 (13:50) 22.4 (00:00) 24.5 10 (01:50) 5 (03:00) 0 0 0 0 0
29-09-2017 26.9 (15:20) 22.3 (00:00) 24.6 9.44 (04:20) 4.44 (04:30) 0 0 0 0 0
28-09-2017 31.3 (17:20) 21.5 (00:00) 26.4 10 (13:30) 5 (13:30) 0 0 0 0 0
27-09-2017 30.2 (14:50) 22.2 (00:00) 26.2 8.33 (15:30) 3.61 (15:20) 0 0 0 0 0
26-09-2017 27.4 (15:30) 23 (00:00) 25.2 4.44 (15:20) 2.5 (12:00) 0 0 0 0 0
25-09-2017 29.1 (16:10) 22.6 (00:00) 25.9 8.06 (02:00) 3.33 (12:50) 0 0 0 0 0
24-09-2017 26.8 (16:40) 20.2 (00:00) 23.5 7.78 (16:10) 3.89 (15:30) 0 0 0 0 0
23-09-2017 25.5 (15:00) 21.7 (00:00) 23.6 10.56 (14:00) 4.44 (07:10) 0 0 0 0 0
22-09-2017 25.9 (15:40) 21.8 (00:00) 23.8 11.67 (12:50) 5.28 (04:50) 0 0 0 0 0
21-09-2017 25.8 (15:20) 21.6 (00:00) 23.7 11.94 (18:00) 4.72 (18:00) 0 0 0 0 0
20-09-2017 26.8 (14:50) 20.4 (00:00) 23.6 11.94 (13:20) 6.39 (14:30) 0 0 0 0 0

Gráficas

Temp. máximas Temp. mínimas Temp. medias Precipitaciones Rachas de viento máximas Velocidades máximas media en intervalos de 10 minutos

Datos horarios

Fecha y hora oficial Temperatura (ºC) Velocidad del viento (km/h) Dirección del viento Racha (km/h) Dirección de racha Precipitación (mm) Presión (hPa) Tendencia (hPa) Humedad (%)
2017-10-19 23:00:00 23.2 5 Norte 13 Noroeste 0 -- -- 69
2017-10-19 22:00:00 23.3 5 Norte 13 Noroeste 0 -- -- 69
2017-10-19 21:00:00 23.4 6 Norte 17 Norte 0 -- -- 69
2017-10-19 20:00:00 23.7 6 Norte 19 Noroeste 0 -- -- 68
2017-10-19 19:00:00 24 9 Norte 29 Norte 0 -- -- 65
2017-10-19 18:00:00 24.7 10 Nordeste 27 Norte 0 -- -- 63
2017-10-19 17:00:00 25.7 9 Norte 24 Noroeste 0 -- -- 60
2017-10-19 16:00:00 26.7 8 Norte 25 Norte 0 -- -- 56
2017-10-19 15:00:00 26.8 10 Norte 29 Norte 0 -- -- 55
2017-10-19 14:00:00 26.1 11 Norte 23 Noroeste 0 -- -- 59
2017-10-19 13:00:00 24.9 9 Norte 22 Norte 0 -- -- 64
2017-10-19 12:00:00 24 6 Norte 24 Norte 0 -- -- 68
2017-10-19 11:00:00 23 8 Norte 24 Norte 0 -- -- 76
2017-10-19 10:00:00 23.9 9 Norte 23 Norte 0 -- -- 67
2017-10-19 09:00:00 22.9 5 Norte 14 Norte 0 -- -- 72
2017-10-19 08:00:00 22.6 5 Norte 15 Norte 0 -- -- 72
2017-10-19 07:00:00 22.5 6 Norte 15 Norte 0 -- -- 73
2017-10-19 06:00:00 22.6 5 Norte 13 Norte 0 -- -- 74
2017-10-19 05:00:00 22.6 2 Sudeste 14 Noroeste 0 -- -- 75
2017-10-19 04:00:00 22.9 3 Norte 10 Nordeste 0 -- -- 71
2017-10-19 03:00:00 23 3 Norte 12 Norte 0 -- -- 70
2017-10-19 02:00:00 22.9 5 Norte 14 Nordeste 0 -- -- 69
2017-10-19 01:00:00 22.7 3 Norte 16 Este 0 -- -- 66
2017-10-19 00:00:00 22.7 5 Norte 14 Nordeste 0 -- -- 66
2017-10-18 23:00:00 22.5 4 Este 16 Nordeste 0 -- -- 68
2017-10-18 22:00:00 22.6 6 Nordeste 17 Nordeste 0 -- -- 67
2017-10-18 21:00:00 22.7 6 Norte 17 Nordeste 0 -- -- 66
2017-10-18 20:00:00 22.9 10 Norte 22 Norte 0 -- -- 65
2017-10-18 19:00:00 23.5 12 Norte 33 Nordeste 0 -- -- 65
2017-10-18 18:00:00 24.6 11 Norte 27 Nordeste 0 -- -- 63
2017-10-18 17:00:00 26.2 13 Norte 28 Nordeste 0 -- -- 57
2017-10-18 16:00:00 26.3 12 Norte 28 Norte 0 -- -- 56
2017-10-18 15:00:00 26.3 14 Norte 32 Norte 0 -- -- 55
2017-10-18 14:00:00 25.8 14 Norte 31 Norte 0 -- -- 59
2017-10-18 13:00:00 25.1 11 Norte 25 Norte 0 -- -- 61
2017-10-18 12:00:00 25.9 12 Norte 26 Norte 0 -- -- 56
2017-10-18 11:00:00 24.7 13 Norte 27 Norte 0 -- -- 60
2017-10-18 10:00:00 23.5 10 Norte 24 Noroeste 0 -- -- 65
2017-10-18 09:00:00 21.8 9 Norte 24 Norte 0 -- -- 70
2017-10-18 08:00:00 21.4 10 Norte 25 Norte 0 -- -- 70
2017-10-18 07:00:00 21.5 11 Norte 30 Nordeste 0 -- -- 70
2017-10-18 06:00:00 21.8 12 Norte 27 Norte 0 -- -- 68
2017-10-18 05:00:00 22 7 Norte 24 Norte 0 -- -- 67
2017-10-18 04:00:00 21.9 11 Norte 26 Norte 0 -- -- 70
2017-10-18 03:00:00 22 10 Norte 29 Norte 0 -- -- 70
2017-10-18 02:00:00 22.2 12 Norte 29 Nordeste 0 -- -- 70
2017-10-18 01:00:00 22.4 10 Norte 21 Noroeste 0 -- -- 73
2017-10-18 00:00:00 22.5 9 Norte 29 Nordeste 0 -- -- 73
2017-10-17 23:00:00 22.8 14 Norte 30 Nordeste 0 -- -- 73
2017-10-17 22:00:00 23 10 Norte 27 Norte 0 -- -- 74
2017-10-17 21:00:00 23.3 12 Norte 31 Norte 0 -- -- 75
2017-10-17 20:00:00 23.8 12 Norte 31 Norte 0 -- -- 74
2017-10-17 19:00:00 24.8 14 Norte 31 Nordeste 0 -- -- 69
2017-10-17 18:00:00 25.7 13 Norte 31 Norte 0 -- -- 63
2017-10-17 17:00:00 27 16 Norte 29 Norte 0 -- -- 61
2017-10-17 16:00:00 28.3 13 Norte 28 Norte 0 -- -- 57
2017-10-17 15:00:00 28.3 14 Norte 29 Norte 0 -- -- 57
2017-10-17 14:00:00 28.5 11 Nordeste 23 Norte 0 -- -- 56
2017-10-17 13:00:00 28 11 Norte 23 Norte 0 -- -- 59
2017-10-17 12:00:00 26.6 8 Sudeste 19 Sudeste -- -- -- 65
2017-10-17 11:00:00 26.4 9 Norte 22 Nordeste 0 -- -- 64
2017-10-17 10:00:00 24.8 10 Norte 22 Nordeste 0 -- -- 70
2017-10-17 09:00:00 24.1 8 Norte 21 Norte 0 -- -- 71
2017-10-17 08:00:00 24 7 Norte 31 Norte 0 -- -- 70
2017-10-17 07:00:00 23.9 16 Norte 34 Norte 0 -- -- 71
2017-10-17 06:00:00 24.3 14 Norte 36 Norte 0 -- -- 73
2017-10-17 05:00:00 24.7 19 Norte 39 Norte 0 -- -- 71
2017-10-17 04:00:00 25 18 Norte 43 Norte 0 -- -- 67
2017-10-17 03:00:00 25 14 Norte 35 Norte 0 -- -- 63
2017-10-17 02:00:00 24.8 7 Norte 18 Norte 0 -- -- 62
2017-10-17 01:00:00 22.7 2 Oeste 8 Norte 0 -- -- 59
2017-10-17 00:00:00 22.9 3 Norte 6 Norte 0 -- -- 57
2017-10-16 23:00:00 23.2 0 Calma 5 Norte 0 -- -- 60
2017-10-16 22:00:00 23.4 3 Norte 6 Norte 0 -- -- 69
2017-10-16 21:00:00 24.5 0 Calma 4 Sudoeste 0 -- -- 74
2017-10-16 20:00:00 25.2 2 Sur 5 Sudeste 0 -- -- 74
2017-10-16 19:00:00 26.4 4 Sur 10 Sudoeste 0 -- -- 60
2017-10-16 18:00:00 27.5 3 Sur 11 Sudoeste 0 -- -- 54
2017-10-16 17:00:00 27.5 3 Este 11 Sur 0 -- -- 54
2017-10-16 16:00:00 27.5 6 Sur 11 Sur 0 -- -- 60
2017-10-16 15:00:00 27.1 5 Sudeste 14 Sur 0 -- -- 56
2017-10-16 14:00:00 27.2 6 Sur 10 Sur 0 -- -- 59
2017-10-16 13:00:00 26.8 5 Sudeste 11 Sur 0 -- -- 68
2017-10-16 12:00:00 25.9 2 Sudeste 8 Sudeste 0 -- -- 71
2017-10-16 11:00:00 25.6 6 Sur 10 Sudeste 0 -- -- 71
2017-10-16 10:00:00 25.6 5 Norte 8 Norte 0 -- -- 51
2017-10-16 09:00:00 22.8 2 Norte 6 Norte 0 -- -- 55
2017-10-16 08:00:00 22.6 4 Norte 8 Norte 0 -- -- 53
2017-10-16 07:00:00 22.8 0 Calma 6 Norte 0 -- -- 48
2017-10-16 06:00:00 23 3 Norte 5 Norte 0 -- -- 46
2017-10-16 05:00:00 23.8 2 Norte 8 Oeste 0 -- -- 45
2017-10-16 04:00:00 23.7 3 Norte 9 Norte 0 -- -- 46
2017-10-16 03:00:00 24.5 0 Calma 7 Norte 0 -- -- 44
2017-10-16 02:00:00 24.3 4 Norte 8 Noroeste 0 -- -- 45
2017-10-16 01:00:00 23.9 3 Norte 8 Norte 0 -- -- 46
2017-10-16 00:00:00 24 4 Norte 9 Norte 0 -- -- 46
2017-10-15 23:00:00 24.2 4 Norte 7 Norte 0 -- -- 47
2017-10-15 22:00:00 24.6 4 Norte 7 Norte 0 -- -- 48
2017-10-15 21:00:00 25.8 4 Norte 6 Norte 0 -- -- 47
2017-10-15 20:00:00 27.3 3 Sudoeste 5 Nordeste 0 -- -- 44
2017-10-15 19:00:00 28 3 Sur 8 Sudeste 0 -- -- 46
2017-10-15 18:00:00 28.9 5 Sur 14 Sur 0 -- -- 43
2017-10-15 17:00:00 30.6 9 Sudeste 17 Sur 0 -- -- 34
2017-10-15 16:00:00 32 10 Norte 20 Norte 0 -- -- 27
2017-10-15 15:00:00 32.4 8 Norte 19 Norte 0 -- -- 27
2017-10-15 14:00:00 32.7 6 Nordeste 26 Este 0 -- -- 25
2017-10-15 13:00:00 32.6 9 Nordeste 25 Nordeste 0 -- -- 25
2017-10-15 12:00:00 32.9 9 Nordeste 29 Nordeste 0 -- -- 24
2017-10-15 11:00:00 33 8 Este 23 Nordeste 0 -- -- 23
2017-10-15 10:00:00 29.9 4 Sur 13 Sudeste 0 -- -- 26
2017-10-15 09:00:00 26.9 2 Noroeste 11 Norte 0 -- -- 32
2017-10-15 08:00:00 26.3 5 Norte 12 Nordeste 0 -- -- 36
2017-10-15 07:00:00 26.1 0 Calma 10 Noroeste 0 -- -- 41
2017-10-15 06:00:00 26 4 Sudoeste 12 Sur 0 -- -- 53
2017-10-15 05:00:00 26.2 3 Norte 11 Sur 0 -- -- 33
2017-10-15 04:00:00 25.8 2 Norte 5 Norte 0 -- -- 38
2017-10-15 03:00:00 27.2 4 Sur 9 Sudoeste 0 -- -- 42
2017-10-15 02:00:00 26.4 3 Norte 6 Norte 0 -- -- 29
2017-10-15 01:00:00 26.2 0 Calma 5 Norte 0 -- -- 31
2017-10-15 00:00:00 27.2 0 Calma 7 Norte 0 -- -- 32
2017-10-14 23:00:00 27.2 3 Norte 6 Norte 0 -- -- 28
2017-10-14 22:00:00 27.2 0 Calma 8 Norte 0 -- -- 30
2017-10-14 21:00:00 27.5 5 Norte 9 Norte 0 -- -- 34
2017-10-14 20:00:00 28.2 0 Calma 6 Norte 0 -- -- 41
2017-10-14 19:00:00 28.7 4 Sur 9 Sur 0 -- -- 44
2017-10-14 18:00:00 30.9 3 Sudeste 15 Sur 0 -- -- 31
2017-10-14 17:00:00 31.8 3 Sur 12 Nordeste 0 -- -- 31
2017-10-14 16:00:00 32.6 5 Sur 16 Este 0 -- -- 27
2017-10-14 15:00:00 30.9 3 Sur 18 Sudeste 0 -- -- 39
2017-10-14 14:00:00 32.2 6 Sudeste 12 Sur 0 -- -- 37
2017-10-14 13:00:00 30.1 5 Sudoeste 21 Sudeste 0 -- -- 40
2017-10-14 12:00:00 32.7 7 Sudeste 14 Sudeste 0 -- -- 39
2017-10-14 11:00:00 31.5 4 Norte 13 Noroeste 0 -- -- 27
2017-10-14 10:00:00 30.4 4 Oeste 19 Sur 0 -- -- 31
2017-10-14 09:00:00 30.4 8 Oeste 18 Este 0 -- -- 26
2017-10-14 08:00:00 29.2 4 Norte 17 Norte 0 -- -- 28
2017-10-14 07:00:00 27.3 11 Norte 19 Norte 0 -- -- 47
2017-10-14 06:00:00 26.7 3 Sudoeste 26 Sur 0 -- -- 53
2017-10-14 05:00:00 27.1 7 Norte 15 Norte 0 -- -- 44
2017-10-14 04:00:00 27.9 5 Sudoeste 30 Sudeste 0 -- -- 44
2017-10-14 03:00:00 27.9 7 Norte 15 Norte 0 -- -- 28
2017-10-14 02:00:00 27.1 2 Norte 9 Norte 0 -- -- 30
2017-10-14 01:00:00 27.3 3 Norte 10 Sudeste 0 -- -- 37
2017-10-14 00:00:00 28.3 6 Sur 12 Sur 0 -- -- 43
2017-10-13 23:00:00 28.1 4 Norte 8 Norte 0 -- -- 29
2017-10-13 22:00:00 28.1 5 Norte 10 Norte 0 -- -- 33
2017-10-13 21:00:00 28.2 2 Norte 7 Norte 0 -- -- 32
2017-10-13 20:00:00 27.7 3 Norte 6 Sur 0 -- -- 45
2017-10-13 19:00:00 27.9 3 Sur 8 Sur 0 -- -- 70
2017-10-13 18:00:00 27.8 3 Sur 12 Sur 0 -- -- 68
2017-10-13 17:00:00 30 6 Sudeste 14 Norte 0 -- -- 57
2017-10-13 16:00:00 28.2 4 Sudeste 14 Sudeste 0 -- -- 67
2017-10-13 15:00:00 31.1 8 Sur 16 Nordeste 0 -- -- 44
2017-10-13 14:00:00 31.2 5 Sudeste 14 Sudeste 0 -- -- 44
2017-10-13 13:00:00 31.2 7 Sur 13 Sur 0 -- -- 40
2017-10-13 12:00:00 30.7 5 Sur 10 Sur 0 -- -- 39
2017-10-13 11:00:00 29.3 6 Sudoeste 11 Sudoeste 0 -- -- 43
2017-10-13 10:00:00 27.2 3 Sur 8 Norte 0 -- -- 40
2017-10-13 09:00:00 25.1 3 Norte 7 Norte 0 -- -- 36
2017-10-13 08:00:00 26.2 3 Noroeste 13 Norte 0 -- -- 31
2017-10-13 07:00:00 25.1 4 Norte 14 Norte 0 -- -- 34
2017-10-13 06:00:00 23.5 3 Norte 11 Noroeste 0 -- -- 39
2017-10-13 05:00:00 22.8 5 Norte 10 Norte 0 -- -- 49
2017-10-13 04:00:00 22.2 4 Norte 14 Nordeste 0 -- -- 79
2017-10-13 03:00:00 22.1 0 Calma 10 Noroeste 0 -- -- 81
2017-10-13 02:00:00 21.1 2 Oeste 6 Norte 0 -- -- 67
2017-10-13 01:00:00 20.7 4 Norte 8 Norte 0 -- -- 61
2017-10-13 00:00:00 21.2 3 Norte 10 Norte 0 -- -- 68
2017-10-12 23:00:00 22.1 3 Norte 8 Norte 0 -- -- 73
2017-10-12 22:00:00 23.4 3 Norte 6 Sudoeste 0 -- -- 75
2017-10-12 21:00:00 24.3 2 Norte 8 Sudoeste 0 -- -- 72
2017-10-12 20:00:00 25.2 2 Norte 15 Sudoeste 0 -- -- 69
2017-10-12 19:00:00 25.8 2 Sur 13 Este 0 -- -- 66
2017-10-12 18:00:00 27.1 6 Sudoeste 14 Sudoeste 0 -- -- 55
2017-10-12 17:00:00 26.8 6 Sur 13 Sur 0 -- -- 60
2017-10-12 16:00:00 26.2 5 Sur 13 Sudeste 0 -- -- 66
2017-10-12 15:00:00 26.3 7 Sur 16 Sudeste 0 -- -- 68
2017-10-12 14:00:00 27.2 7 Sur 14 Sudeste 0 -- -- 65
2017-10-12 13:00:00 26.7 7 Sudeste 14 Sur 0 -- -- 66
2017-10-12 12:00:00 25.5 5 Sur 16 Sudeste 0 -- -- 70
2017-10-12 11:00:00 25.4 6 Sudeste 13 Sur 0 -- -- 70
2017-10-12 10:00:00 23.9 3 Sur 8 Noroeste 0 -- -- 66
2017-10-12 09:00:00 20.6 4 Norte 9 Norte 0 -- -- 63
2017-10-12 08:00:00 19.5 4 Norte 9 Norte 0 -- -- 66
2017-10-12 07:00:00 19.9 5 Norte 9 Noroeste 0 -- -- 68
2017-10-12 06:00:00 20 4 Norte 8 Norte 0 -- -- 70
2017-10-12 05:00:00 20 5 Norte 9 Norte 0 -- -- 73
2017-10-12 04:00:00 19.4 4 Norte 8 Norte 0 -- -- 75
2017-10-12 03:00:00 19.4 4 Norte 8 Norte 0 -- -- 75
2017-10-12 02:00:00 19.8 4 Norte 8 Norte 0 -- -- 75
2017-10-12 01:00:00 20.2 5 Norte 8 Norte 0 -- -- 74
2017-10-12 00:00:00 20.7 5 Norte 7 Norte 0 -- -- 73
2017-10-11 23:00:00 21.2 4 Norte 6 Norte 0 -- -- 71
2017-10-11 22:00:00 22.2 3 Norte 10 Sur 0 -- -- 69
2017-10-11 21:00:00 23.3 4 Sur 14 Sur 0 -- -- 69
2017-10-11 20:00:00 23.8 5 Sur 13 Sudeste 0 -- -- 66
2017-10-11 19:00:00 24.3 7 Sudeste 17 Sudeste 0 -- -- 63
2017-10-11 18:00:00 24.7 9 Sudeste 20 Sur 0 -- -- 60
2017-10-11 17:00:00 25.6 9 Sudeste 21 Sudeste 0 -- -- 59
2017-10-11 16:00:00 25.7 7 Sudeste 19 Sur 0 -- -- 60
2017-10-11 15:00:00 26.1 7 Sur 17 Sur 0 -- -- 60
2017-10-11 14:00:00 25.9 6 Sur 15 Sur 0 -- -- 59
2017-10-11 13:00:00 25.5 6 Sur 12 Sur 0 -- -- 61
2017-10-11 12:00:00 25.1 4 Sudeste 13 Sur 0 -- -- 60
2017-10-11 11:00:00 24.3 5 Sur 10 Sur 0 -- -- 66
2017-10-11 10:00:00 23.3 3 Sur 7 Norte 0 -- -- 69
2017-10-11 09:00:00 19.6 4 Norte 8 Norte 0 -- -- 71
2017-10-11 08:00:00 18.7 4 Norte 9 Norte 0 -- -- 65
2017-10-11 07:00:00 19 4 Norte 10 Noroeste 0 -- -- 61
2017-10-11 06:00:00 18.9 6 Norte 9 Norte 0 -- -- 59
2017-10-11 05:00:00 19.3 5 Norte 9 Noroeste 0 -- -- 58
2017-10-11 04:00:00 19.2 5 Norte 10 Norte 0 -- -- 60
2017-10-11 03:00:00 20.1 3 Noroeste 8 Norte 0 -- -- 61
2017-10-11 02:00:00 20.2 4 Norte 8 Norte 0 -- -- 71
2017-10-11 01:00:00 20.4 4 Norte 7 Norte 0 -- -- 71
2017-10-11 00:00:00 20.9 4 Norte 7 Norte 0 -- -- 69
2017-10-10 23:00:00 21.1 4 Norte 10 Nordeste 0 -- -- 68
2017-10-10 22:00:00 21.8 4 Norte 8 Norte 0 -- -- 67
2017-10-10 21:00:00 22.4 3 Norte 7 Norte 0 -- -- 66
2017-10-10 20:00:00 23.2 3 Sur 9 Sur 0 -- -- 66
2017-10-10 19:00:00 23.6 5 Sur 11 Sur 0 -- -- 61
2017-10-10 18:00:00 24.1 6 Sur 15 Sur 0 -- -- 62
2017-10-10 17:00:00 25.8 8 Sur 16 Sur 0 -- -- 58
2017-10-10 16:00:00 25.3 8 Sur 15 Sur 0 -- -- 61
2017-10-10 15:00:00 25.8 8 Sur 15 Sur 0 -- -- 61
2017-10-10 14:00:00 25.8 8 Sur 15 Sur 0 -- -- 61
2017-10-10 13:00:00 25.3 8 Sur 15 Sur 0 -- -- 64
2017-10-10 12:00:00 25 6 Sudeste 15 Sur 0 -- -- 65
2017-10-10 11:00:00 24.2 6 Sur 12 Sur 0 -- -- 67
2017-10-10 10:00:00 23 2 Sudeste 8 Norte 0 -- -- 68
2017-10-10 09:00:00 19.4 5 Norte 9 Norte 0 -- -- 70
2017-10-10 08:00:00 18.7 4 Norte 9 Norte 0 -- -- 70
2017-10-10 07:00:00 18.4 5 Norte 9 Norte 0 -- -- 68
2017-10-10 06:00:00 18.7 4 Norte 10 Norte 0 -- -- 68
2017-10-10 05:00:00 19.2 5 Norte 9 Norte 0 -- -- 66
2017-10-10 04:00:00 19.3 5 Norte 9 Norte 0 -- -- 66
2017-10-10 03:00:00 19.7 5 Norte 10 Norte 0 -- -- 64
2017-10-10 02:00:00 20 4 Norte 8 Norte 0 -- -- 61
2017-10-10 01:00:00 20 5 Norte 8 Norte 0 -- -- 61
2017-10-10 00:00:00 20.5 5 Norte 8 Norte 0 -- -- 59
2017-10-09 23:00:00 21.3 4 Norte 9 Norte 0 -- -- 61
2017-10-09 22:00:00 22.5 3 Noroeste 14 Norte 0 -- -- 58
2017-10-09 21:00:00 23.1 5 Norte 10 Nordeste 0 -- -- 59
2017-10-09 20:00:00 23.7 6 Nordeste 13 Nordeste 0 -- -- 58
2017-10-09 19:00:00 23.8 6 Nordeste 15 Norte 0 -- -- 66
2017-10-09 18:00:00 24.5 5 Sudeste 16 Norte 0 -- -- 66
2017-10-09 17:00:00 26 7 Norte 20 Norte 0 -- -- 56
2017-10-09 16:00:00 25.5 8 Norte 18 Norte 0 -- -- 58
2017-10-09 15:00:00 24.6 5 Sur 14 Sur 0 -- -- 65
2017-10-09 14:00:00 26.2 9 Sur 14 Sur 0 -- -- 61
2017-10-09 13:00:00 25.4 6 Sur 14 Sur 0 -- -- 65
2017-10-09 12:00:00 25.7 8 Sur 14 Sur 0 -- -- 64
2017-10-09 11:00:00 25.2 6 Sur 14 Sur 0 -- -- 65
2017-10-09 10:00:00 24 4 Sur 8 Norte 0 -- -- 55
2017-10-09 09:00:00 19.8 5 Norte 9 Noroeste 0 -- -- 65
2017-10-09 08:00:00 18.6 4 Norte 9 Norte 0 -- -- 68
2017-10-09 07:00:00 18.7 5 Norte 10 Norte 0 -- -- 67
2017-10-09 06:00:00 18.4 6 Norte 9 Norte 0 -- -- 69
2017-10-09 05:00:00 18.5 5 Norte 9 Norte 0 -- -- 70
2017-10-09 04:00:00 18.9 5 Norte 9 Norte 0 -- -- 71
2017-10-09 03:00:00 19.1 4 Norte 9 Norte 0 -- -- 73
2017-10-09 02:00:00 19.4 5 Norte 8 Norte 0 -- -- 73
2017-10-09 01:00:00 20 5 Norte 10 Norte 0 -- -- 72
2017-10-09 00:00:00 20.1 5 Norte 8 Norte 0 -- -- 74
2017-10-08 23:00:00 21.2 4 Norte 9 Nordeste 0 -- -- 73
2017-10-08 22:00:00 22.6 4 Norte 10 Norte 0 -- -- 72
2017-10-08 21:00:00 23.4 0 Calma 9 Sur 0 -- -- 71
2017-10-08 20:00:00 23.7 4 Sudoeste 9 Sur 0 -- -- 72
2017-10-08 19:00:00 24.2 5 Sur 10 Sudeste 0 -- -- 70
2017-10-08 18:00:00 24.7 7 Sur 13 Sur 0 -- -- 68
2017-10-08 17:00:00 26.4 8 Sudeste 17 Sur 0 -- -- 62
2017-10-08 16:00:00 26.1 9 Sur 19 Sudeste 0 -- -- 61
2017-10-08 15:00:00 26.1 12 Sudeste 22 Sur 0 -- -- 61
2017-10-08 14:00:00 24.7 8 Sudeste 21 Sudeste 0 -- -- 65
2017-10-08 13:00:00 25 6 Sur 14 Sur 0 -- -- 61
2017-10-08 12:00:00 25.2 7 Sur 16 Este 0 -- -- 60
2017-10-08 11:00:00 24.4 6 Nordeste 15 Norte 0 -- -- 58
2017-10-08 10:00:00 23.3 2 Este 12 Norte 0 -- -- 66
2017-10-08 09:00:00 21.7 5 Norte 13 Norte 0 -- -- 68
2017-10-08 08:00:00 20.8 6 Norte 13 Norte 0 -- -- 72
2017-10-08 07:00:00 20.4 4 Norte 8 Norte 0 -- -- 73
2017-10-08 06:00:00 21.3 0 Calma 10 Nordeste 0 -- -- 69
2017-10-08 05:00:00 21.5 4 Norte 9 Norte 0 -- -- 69
2017-10-08 04:00:00 22.2 3 Norte 10 Norte 0 -- -- 68
2017-10-08 03:00:00 22.4 0 Calma 15 Norte 0 -- -- 67
2017-10-08 02:00:00 22 0 Calma 8 Este 0 -- -- 68
2017-10-08 01:00:00 22.8 3 Norte 19 Norte 0 -- -- 66
2017-10-08 00:00:00 23 4 Norte 14 Norte 0 -- -- 64
2017-10-07 23:00:00 23 3 Norte 19 Noroeste 0 -- -- 67
2017-10-07 22:00:00 22.9 5 Norte 18 Norte 0 -- -- 67
2017-10-07 21:00:00 23.2 6 Norte 23 Noroeste 0 -- -- 66
2017-10-07 20:00:00 23.6 10 Norte 22 Norte 0 -- -- 64
2017-10-07 19:00:00 24.3 8 Norte 16 Norte 0 -- -- 61
2017-10-07 18:00:00 25 8 Norte 20 Norte 0 -- -- 58
2017-10-07 17:00:00 25.8 9 Nordeste 18 Norte 0 -- -- 54
2017-10-07 16:00:00 25.6 6 Noroeste 22 Sudoeste 0 -- -- 58
2017-10-07 15:00:00 25.3 9 Sudoeste 24 Sudoeste 0 -- -- 57
2017-10-07 14:00:00 25 11 Sudoeste 20 Sudoeste 0 -- -- 61
2017-10-07 13:00:00 26.8 8 Nordeste 24 Norte 0 -- -- 49
2017-10-07 12:00:00 26.3 11 Norte 26 Norte 0 -- -- 50
2017-10-07 11:00:00 25.9 10 Norte 19 Norte 0 -- -- 51
2017-10-07 10:00:00 24.1 3 Nordeste 8 Norte 0 -- -- 61
2017-10-07 09:00:00 21.2 3 Norte 8 Norte 0 -- -- 69
2017-10-07 08:00:00 20.7 0 Calma 9 Noroeste 0 -- -- 68
2017-10-07 07:00:00 21.7 5 Norte 18 Norte 0 -- -- 67
2017-10-07 06:00:00 22 9 Norte 19 Norte 0 -- -- 67
2017-10-07 05:00:00 20.5 4 Norte 12 Norte 0 -- -- 69
2017-10-07 04:00:00 20.1 3 Norte 6 Nordeste 0 -- -- 71
2017-10-07 03:00:00 20.8 2 Norte 7 Norte 0 -- -- 70
2017-10-07 02:00:00 21.6 0 Calma 7 Norte 0 -- -- 67
2017-10-07 01:00:00 22.7 0 Calma 12 Nordeste 0 -- -- 64
2017-10-07 00:00:00 22.8 3 Norte 9 Norte 0 -- -- 64
2017-10-06 23:00:00 23.1 5 Norte 14 Nordeste 0 -- -- 65
2017-10-06 22:00:00 23.4 3 Sur 9 Sur 0 -- -- 74
2017-10-06 21:00:00 23.3 4 Sur 6 Sur 0 -- -- 73
2017-10-06 20:00:00 23.6 2 Sudeste 8 Sur 0 -- -- 70
2017-10-06 19:00:00 24.1 4 Sur 12 Sur 0 -- -- 68
2017-10-06 18:00:00 25 7 Sur 19 Sudeste 0 -- -- 64
2017-10-06 17:00:00 25.9 9 Sur 20 Sur 0 -- -- 59
2017-10-06 16:00:00 26.2 9 Sur 22 Sudeste 0 -- -- 61
2017-10-06 15:00:00 26.2 13 Sudeste 27 Sudeste 0 -- -- 61
2017-10-06 14:00:00 26.3 11 Sudeste 29 Este 0 -- -- 63
2017-10-06 13:00:00 25.7 12 Sudeste 28 Sudeste 0 -- -- 64
2017-10-06 12:00:00 25.2 9 Este 22 Sudeste 0 -- -- 65
2017-10-06 11:00:00 25.1 10 Sudeste 18 Sudeste 0 -- -- 64
2017-10-06 10:00:00 24.9 6 Norte 13 Noroeste 0 -- -- 55
2017-10-06 09:00:00 20.9 3 Norte 10 Norte 0 -- -- 69
2017-10-06 08:00:00 19.2 5 Norte 9 Norte 0 -- -- 73
2017-10-06 07:00:00 19.1 4 Norte 11 Norte 0 -- -- 74
2017-10-06 06:00:00 19.2 3 Norte 7 Norte 0 -- -- 74
2017-10-06 05:00:00 19.1 0 Calma 4 Norte 0 -- -- 76
2017-10-06 04:00:00 19.6 4 Norte 9 Norte 0 -- -- 78
2017-10-06 03:00:00 19.7 5 Norte 8 Norte 0 -- -- 77
2017-10-06 02:00:00 19.9 4 Norte 9 Norte 0 -- -- 79
2017-10-06 01:00:00 19.9 4 Norte 7 Norte 0 -- -- 78
2017-10-06 00:00:00 20.8 4 Norte 8 Norte 0 -- -- 74
2017-10-05 23:00:00 21.8 4 Norte 10 Norte 0 -- -- 72
2017-10-05 22:00:00 22.8 3 Nordeste 8 Nordeste 0 -- -- 73
2017-10-05 21:00:00 23.6 2 Este 9 Sudeste 0 -- -- 76
2017-10-05 20:00:00 23.7 3 Sudeste 12 Sudeste 0 -- -- 75
2017-10-05 19:00:00 23.8 5 Sudeste 10 Sur 0 -- -- 74
2017-10-05 18:00:00 24 4 Sur 9 Sudeste 0 -- -- 73
2017-10-05 17:00:00 24.2 6 Sur 13 Sur 0 -- -- 72
2017-10-05 16:00:00 25.8 8 Sur 15 Sur 0 -- -- 66
2017-10-05 15:00:00 25.7 8 Sur 14 Sur 0 -- -- 67
2017-10-05 14:00:00 25.3 8 Sur 16 Sur 0 -- -- 68
2017-10-05 13:00:00 26 8 Sur 15 Sudeste 0 -- -- 67
2017-10-05 12:00:00 25.8 8 Sur 18 Sur 0 -- -- 65
2017-10-05 11:00:00 24.2 8 Norte 18 Este 0 -- -- 65
2017-10-05 10:00:00 23.3 5 Nordeste 14 Nordeste 0 -- -- 75
2017-10-05 09:00:00 22.9 5 Sudeste 11 Sudeste 0 -- -- 77
2017-10-05 08:00:00 22 3 Norte 5 Nordeste 0 -- -- 72
2017-10-05 07:00:00 21.8 0 Calma 8 Norte 0 -- -- 72
2017-10-05 06:00:00 21.7 4 Norte 8 Norte 0 -- -- 73
2017-10-05 05:00:00 21.1 5 Norte 7 Norte 0 -- -- 74
2017-10-05 04:00:00 21.6 5 Norte 11 Norte 0 -- -- 72
2017-10-05 03:00:00 22.9 5 Norte 12 Nordeste 0 -- -- 69
2017-10-05 02:00:00 23.4 4 Nordeste 9 Nordeste 0 -- -- 68
2017-10-05 01:00:00 23.4 3 Norte 9 Norte 0 -- -- 68
2017-10-05 00:00:00 23.3 3 Norte 7 Norte 0 -- -- 69
2017-10-04 23:00:00 23.6 4 Norte 14 Norte 0 -- -- 71
2017-10-04 22:00:00 23.8 5 Norte 13 Nordeste 0 -- -- 70
2017-10-04 21:00:00 24 2 Sudoeste 10 Norte 0 -- -- 70
2017-10-04 20:00:00 24.2 5 Noroeste 14 Nordeste 0 -- -- 71
2017-10-04 19:00:00 25.1 4 Este 13 Nordeste 0 -- -- 67
2017-10-04 18:00:00 25.8 9 Nordeste 24 Norte 0 -- -- 64
2017-10-04 17:00:00 27 10 Nordeste 26 Norte 0 -- -- 60
2017-10-04 16:00:00 26.5 12 Norte 24 Norte 0 -- -- 60
2017-10-04 15:00:00 26.9 6 Sur 14 Sudeste 0 -- -- 60
2017-10-04 14:00:00 26.6 8 Sur 17 Sur 0 -- -- 62
2017-10-04 13:00:00 26.3 8 Sudeste 21 Norte 0 -- -- 63
2017-10-04 12:00:00 25.9 5 Oeste 22 Norte 0 -- -- 64
2017-10-04 11:00:00 25.9 9 Norte 19 Nordeste 0 -- -- 63
2017-10-04 10:00:00 24 5 Norte 15 Norte 0 -- -- 69
2017-10-04 09:00:00 22.3 0 Calma 7 Norte 0 -- -- 73
2017-10-04 08:00:00 21.3 3 Norte 7 Norte 0 -- -- 75
2017-10-04 07:00:00 21.2 3 Norte 8 Oeste 0 -- -- 74
2017-10-04 06:00:00 22.3 5 Oeste 14 Norte 0 -- -- 73
2017-10-04 05:00:00 22.4 3 Norte 19 Norte 0 -- -- 72
2017-10-04 04:00:00 22.9 11 Norte 22 Norte 0 -- -- 73
2017-10-04 03:00:00 22.9 7 Norte 22 Nordeste 0 -- -- 72
2017-10-04 02:00:00 23.1 10 Norte 26 Norte 0 -- -- 70
2017-10-04 01:00:00 23.1 9 Norte 24 Norte 0 -- -- 70
2017-10-04 00:00:00 23.3 8 Norte 31 Nordeste 0 -- -- 68
2017-10-03 23:00:00 23.3 15 Norte 28 Noroeste 0 -- -- 68
2017-10-03 22:00:00 23.5 12 Norte 30 Norte 0 -- -- 68
2017-10-03 21:00:00 23.5 9 Norte 23 Norte 0 -- -- 68
2017-10-03 20:00:00 23.7 10 Norte 22 Nordeste 0 -- -- 67
2017-10-03 19:00:00 24.7 12 Norte 24 Nordeste 0 -- -- 62
2017-10-03 18:00:00 26.1 11 Nordeste 24 Nordeste 0 -- -- 60
2017-10-03 17:00:00 28.1 8 Norte 20 Norte 0 -- -- 54
2017-10-03 16:00:00 29.4 7 Este 29 Nordeste 0 -- -- 48
2017-10-03 15:00:00 28.7 14 Nordeste 27 Nordeste 0 -- -- 52
2017-10-03 14:00:00 29.1 11 Nordeste 25 Este 0 -- -- 49
2017-10-03 13:00:00 28 9 Norte 26 Norte 0 -- -- 52
2017-10-03 12:00:00 26.6 13 Norte 26 Norte 0 -- -- 58
2017-10-03 11:00:00 25.9 9 Norte 31 Nordeste 0 -- -- 63
2017-10-03 10:00:00 24.4 12 Norte 28 Norte 0 -- -- 68
2017-10-03 09:00:00 22.9 12 Norte 28 Nordeste 0 -- -- 70
2017-10-03 08:00:00 22.6 12 Norte 31 Norte 0 -- -- 71
2017-10-03 07:00:00 22.6 14 Norte 31 Norte 0 -- -- 71
2017-10-03 06:00:00 22.6 11 Norte 26 Norte 0 -- -- 71
2017-10-03 05:00:00 23 15 Norte 37 Norte 0 -- -- 71
2017-10-03 04:00:00 23 13 Norte 29 Norte 0 -- -- 70
2017-10-03 03:00:00 23 13 Norte 28 Norte 0 -- -- 69
2017-10-03 02:00:00 22.9 8 Norte 24 Norte 0 -- -- 71
2017-10-03 01:00:00 23 12 Norte 32 Norte 0 -- -- 70
2017-10-03 00:00:00 22.8 14 Norte 30 Noroeste 0 -- -- 72
2017-10-02 23:00:00 23.2 16 Norte 37 Norte 0 -- -- 72
2017-10-02 22:00:00 23.2 14 Norte 33 Norte 0 -- -- 68
2017-10-02 21:00:00 23.2 15 Norte 33 Norte 0 -- -- 69
2017-10-02 20:00:00 23.4 17 Norte 37 Norte 0 -- -- 69
2017-10-02 19:00:00 23.8 17 Norte 36 Norte 0 -- -- 67
2017-10-02 18:00:00 25 14 Norte 33 Nordeste 0 -- -- 65
2017-10-02 17:00:00 26 19 Norte 40 Norte 0 -- -- 60
2017-10-02 16:00:00 26.7 17 Norte 40 Norte 0 -- -- 57
2017-10-02 15:00:00 26.9 15 Norte 40 Noroeste 0 -- -- 54
2017-10-02 14:00:00 26.4 14 Norte 34 Norte 0 -- -- 58
2017-10-02 13:00:00 26.7 9 Nordeste 35 Norte 0 -- -- 58
2017-10-02 12:00:00 26.1 12 Norte 31 Norte 0 -- -- 58
2017-10-02 11:00:00 25.3 8 Nordeste 24 Norte 0 -- -- 63
2017-10-02 10:00:00 24.7 9 Norte 24 Norte 0 -- -- 61
2017-10-02 09:00:00 22.9 9 Norte 24 Norte 0 -- -- 64
2017-10-02 08:00:00 22.3 10 Norte 23 Nordeste 0 -- -- 72
2017-10-02 07:00:00 22 12 Norte 29 Norte 0 -- -- 76
2017-10-02 06:00:00 22.4 4 Norte 18 Este 0 -- -- 73
2017-10-02 05:00:00 22.3 3 Norte 18 Norte 0 -- -- 72
2017-10-02 04:00:00 22.5 6 Norte 22 Norte 0 -- -- 71
2017-10-02 03:00:00 22.3 9 Norte 23 Nordeste 0 -- -- 73
2017-10-02 02:00:00 22.3 6 Norte 22 Nordeste 0 -- -- 71
2017-10-02 01:00:00 22.5 9 Norte 24 Norte 0 -- -- 72
2017-10-02 00:00:00 22.4 8 Norte 26 Noroeste 0 -- -- 72
2017-10-01 23:00:00 22.5 7 Norte 29 Nordeste 0 -- -- 71
2017-10-01 22:00:00 22.6 12 Norte 34 Norte 0 -- -- 71
2017-10-01 21:00:00 22.8 14 Norte 33 Norte 0 -- -- 72
2017-10-01 20:00:00 22.9 13 Norte 34 Norte 0 -- -- 72
2017-10-01 19:00:00 23.5 13 Norte 34 Norte 0 -- -- 69
2017-10-01 18:00:00 24.1 18 Norte 45 Nordeste 0 -- -- 68
2017-10-01 17:00:00 25.4 20 Norte 44 Norte 0 -- -- 64
2017-10-01 16:00:00 26.4 16 Norte 41 Norte 0 -- -- 61
2017-10-01 15:00:00 26.6 14 Norte 33 Norte 0 -- -- 60
2017-10-01 14:00:00 26.3 12 Norte 28 Norte 0 -- -- 60
2017-10-01 13:00:00 25.5 12 Norte 29 Norte 0 -- -- 63
2017-10-01 12:00:00 25 13 Norte 25 Nordeste 0 -- -- 63
2017-10-01 11:00:00 24.9 10 Norte 24 Nordeste 0 -- -- 66
2017-10-01 10:00:00 24.1 9 Norte 22 Nordeste 0 -- -- 69
2017-10-01 09:00:00 22.9 11 Norte 27 Noroeste 0 -- -- 73
2017-10-01 08:00:00 22.8 9 Norte 22 Nordeste 0 -- -- 73
2017-10-01 07:00:00 22.8 8 Norte 27 Nordeste 0 -- -- 74
2017-10-01 06:00:00 22.8 6 Norte 20 Norte 0 -- -- 73
2017-10-01 05:00:00 22.9 6 Norte 22 Norte 0 -- -- 73
2017-10-01 04:00:00 23 7 Norte 24 Norte 0 -- -- 73
2017-10-01 03:00:00 23.1 11 Norte 27 Norte 0 -- -- 72
2017-10-01 02:00:00 23.1 10 Norte 29 Norte 0 -- -- 73
2017-10-01 01:00:00 23.1 15 Norte 35 Norte 0 -- -- 72
2017-10-01 00:00:00 23.3 12 Norte 27 Norte 0 -- -- 71
2017-09-30 23:00:00 23.4 15 Norte 33 Noroeste 0 -- -- 69
2017-09-30 22:00:00 23.4 9 Norte 25 Norte 0 -- -- 72
2017-09-30 21:00:00 23.4 11 Norte 31 Norte 0 -- -- 72
2017-09-30 20:00:00 23.6 10 Norte 34 Norte 0 -- -- 69
2017-09-30 19:00:00 24 12 Norte 29 Norte 0 -- -- 68
2017-09-30 18:00:00 24.7 10 Norte 29 Norte 0 -- -- 66
2017-09-30 17:00:00 25.5 10 Norte 27 Norte 0 -- -- 63
2017-09-30 16:00:00 25.9 9 Norte 28 Norte 0 -- -- 61
2017-09-30 15:00:00 26.1 10 Norte 30 Norte 0 -- -- 61
2017-09-30 14:00:00 26.4 11 Norte 28 Norte 0 -- -- 58
2017-09-30 13:00:00 26.3 13 Norte 33 Norte 0 -- -- 58
2017-09-30 12:00:00 25.8 13 Norte 32 Norte 0 -- -- 60
2017-09-30 11:00:00 25.3 12 Norte 27 Norte 0 -- -- 62
2017-09-30 10:00:00 24.8 10 Norte 23 Nordeste 0 -- -- 62
2017-09-30 09:00:00 23.2 8 Norte 21 Nordeste 0 -- -- 68
2017-09-30 08:00:00 22.6 8 Norte 23 Nordeste 0 -- -- 70
2017-09-30 07:00:00 22.5 10 Norte 32 Nordeste 0 -- -- 72
2017-09-30 06:00:00 22.4 9 Norte 23 Noroeste 0 -- -- 70
2017-09-30 05:00:00 22.5 8 Norte 29 Nordeste 0 -- -- 71
2017-09-30 04:00:00 22.6 12 Norte 33 Nordeste 0 -- -- 71
2017-09-30 03:00:00 22.6 18 Norte 33 Norte 0 -- -- 70
2017-09-30 02:00:00 22.8 17 Norte 36 Norte 0 -- -- 70
2017-09-30 01:00:00 23 13 Norte 28 Nordeste 0 -- -- 68
2017-09-30 00:00:00 22.8 5 Norte 19 Nordeste 0 -- -- 71
2017-09-29 23:00:00 22.8 6 Norte 15 Norte 0 -- -- 71
2017-09-29 22:00:00 23 4 Norte 20 Nordeste 0 -- -- 70
2017-09-29 21:00:00 23.1 6 Norte 18 Norte 0 -- -- 70
2017-09-29 20:00:00 23.3 5 Nordeste 19 Nordeste 0 -- -- 69
2017-09-29 19:00:00 24 9 Norte 30 Norte 0 -- -- 67
2017-09-29 18:00:00 25.1 12 Norte 30 Norte 0 -- -- 64
2017-09-29 17:00:00 26.4 13 Norte 30 Norte 0 -- -- 58
2017-09-29 16:00:00 26.8 12 Norte 30 Norte 0 -- -- 58
2017-09-29 15:00:00 26.2 10 Nordeste 29 Nordeste 0 -- -- 58
2017-09-29 14:00:00 26.6 13 Norte 32 Norte 0 -- -- 56
2017-09-29 13:00:00 25.9 10 Norte 27 Norte 0 -- -- 60
2017-09-29 12:00:00 24.9 11 Norte 30 Nordeste 0 -- -- 63
2017-09-29 11:00:00 25 13 Norte 27 Norte 0 -- -- 64
2017-09-29 10:00:00 24.6 9 Norte 24 Noroeste 0 -- -- 67
2017-09-29 09:00:00 23 8 Norte 22 Nordeste 0 -- -- 69
2017-09-29 08:00:00 22.3 9 Norte 23 Norte 0 -- -- 71
2017-09-29 07:00:00 22.3 9 Norte 30 Noroeste 0 -- -- 72
2017-09-29 06:00:00 22.4 10 Norte 30 Norte 0 -- -- 70
2017-09-29 05:00:00 22.6 12 Norte 34 Norte 0 -- -- 69
2017-09-29 04:00:00 22.6 13 Norte 28 Nordeste 0 -- -- 70
2017-09-29 03:00:00 22.7 10 Norte 26 Norte 0 -- -- 71
2017-09-29 02:00:00 22.8 10 Norte 26 Norte 0 -- -- 70
2017-09-29 01:00:00 23 11 Norte 25 Norte 0 -- -- 68
2017-09-29 00:00:00 23 6 Norte 23 Nordeste 0 -- -- 70
2017-09-28 23:00:00 23.4 13 Norte 27 Norte 0 -- -- 67
2017-09-28 22:00:00 23.6 2 Norte 12 Nordeste 0 -- -- 65
2017-09-28 21:00:00 24 3 Sur 10 Sur 0 -- -- 67
2017-09-28 20:00:00 24.6 8 Sur 14 Sur 0 -- -- 68
2017-09-28 19:00:00 25.6 6 Sur 19 Sudeste 0 -- -- 59
2017-09-28 18:00:00 27.7 13 Sur 23 Sur 0 -- -- 54
2017-09-28 17:00:00 31.2 6 Norte 21 Noroeste 0 -- -- 28
2017-09-28 16:00:00 30.3 9 Norte 24 Nordeste 0 -- -- 36
2017-09-28 15:00:00 29.2 10 Nordeste 31 Norte 0 -- -- 48
2017-09-28 14:00:00 28.2 14 Norte 36 Norte 0 -- -- 56
2017-09-28 13:00:00 27.2 15 Norte 35 Norte 0 -- -- 60
2017-09-28 12:00:00 26.3 12 Norte 30 Norte 0 -- -- 62
2017-09-28 11:00:00 25.5 12 Norte 30 Norte 0 -- -- 64
2017-09-28 10:00:00 24.7 10 Norte 27 Norte 0 -- -- 69
2017-09-28 09:00:00 23.2 11 Norte 28 Norte 0 -- -- 73
2017-09-28 08:00:00 22.6 10 Norte 27 Norte 0 -- -- 74
2017-09-28 07:00:00 21.9 0 Calma 8 Sudoeste 0 -- -- 73
2017-09-28 06:00:00 23.1 4 Sudoeste 15 Norte 0 -- -- 70
2017-09-28 05:00:00 23.4 6 Norte 17 Nordeste 0 -- -- 63
2017-09-28 04:00:00 21.5 0 Calma 6 Nordeste 0 -- -- 74
2017-09-28 03:00:00 22 2 Norte 10 Sudoeste 0 -- -- 77
2017-09-28 02:00:00 22 4 Sudoeste 9 Sudoeste 0 -- -- 78
2017-09-28 01:00:00 22.4 0 Calma 4 Oeste 0 -- -- 77
2017-09-28 00:00:00 23.4 3 Sudoeste 11 Sur 0 -- -- 76
2017-09-27 23:00:00 23.8 4 Sur 9 Sur 0 -- -- 75
2017-09-27 22:00:00 24 5 Sur 14 Sudeste 0 -- -- 75
2017-09-27 21:00:00 24.5 5 Sur 12 Sur 0 -- -- 72
2017-09-27 20:00:00 25.1 8 Sur 16 Sudoeste 0 -- -- 68
2017-09-27 19:00:00 25.2 10 Sur 22 Sudeste 0 -- -- 72
2017-09-27 18:00:00 26.5 12 Sur 24 Sudeste 0 -- -- 64
2017-09-27 17:00:00 28 10 Sur 24 Sur 0 -- -- 55
2017-09-27 16:00:00 29.5 9 Sudeste 30 Sudeste 0 -- -- 48
2017-09-27 15:00:00 30.2 12 Sur 26 Sudeste 0 -- -- 44
2017-09-27 14:00:00 27.9 10 Sur 24 Sur 0 -- -- 57
2017-09-27 13:00:00 28.3 10 Sudeste 28 Este 0 -- -- 49
2017-09-27 12:00:00 28.6 11 Sur 22 Sudeste 0 -- -- 47
2017-09-27 11:00:00 28.7 5 Norte 15 Norte 0 -- -- 40
2017-09-27 10:00:00 27 4 Nordeste 20 Norte 0 -- -- 52
2017-09-27 09:00:00 24.4 10 Norte 24 Norte 0 -- -- 65
2017-09-27 08:00:00 23.1 7 Norte 17 Norte 0 -- -- 77
2017-09-27 07:00:00 22.8 4 Norte 13 Norte 0 -- -- 78
2017-09-27 06:00:00 22.8 2 Noroeste 22 Nordeste 0 -- -- 77
2017-09-27 05:00:00 22.2 0 Calma 5 Norte 0 -- -- 80
2017-09-27 04:00:00 22.6 2 Norte 5 Norte 0 -- -- 78
2017-09-27 03:00:00 23.5 0 Calma 6 Sudoeste 0 -- -- 76
2017-09-27 02:00:00 23.9 3 Sudoeste 16 Norte 0 -- -- 75
2017-09-27 01:00:00 24.3 5 Norte 14 Nordeste 0 -- -- 74
2017-09-27 00:00:00 23.9 0 Calma 8 Norte 0 -- -- 74
2017-09-26 23:00:00 24 0 Calma 5 Sudeste 0 -- -- 80
2017-09-26 22:00:00 24.1 2 Norte 8 Sudoeste 0 -- -- 76
2017-09-26 21:00:00 24.6 4 Sur 9 Sur 0 -- -- 76
2017-09-26 20:00:00 25.1 4 Sur 10 Este 0 -- -- 68
2017-09-26 19:00:00 26 4 Sur 9 Sur 0 -- -- 63
2017-09-26 18:00:00 26.8 6 Sur 11 Sur 0 -- -- 60
2017-09-26 17:00:00 27 6 Sur 14 Sudoeste 0 -- -- 62
2017-09-26 16:00:00 27.3 8 Sur 16 Sur 0 -- -- 65
2017-09-26 15:00:00 27 8 Sur 14 Sur 0 -- -- 64
2017-09-26 14:00:00 26.8 7 Sudeste 14 Sudeste 0 -- -- 68
2017-09-26 13:00:00 26.6 8 Sur 14 Sur 0 -- -- 69
2017-09-26 12:00:00 26.3 9 Sur 15 Sur 0 -- -- 72
2017-09-26 11:00:00 25.5 7 Sur 15 Sur 0 -- -- 78
2017-09-26 10:00:00 25.3 6 Sur 13 Sur 0 -- -- 79
2017-09-26 09:00:00 23.5 2 Sur 7 Sudoeste 0 -- -- 80
2017-09-26 08:00:00 23.3 3 Oeste 6 Norte 0 -- -- 77
2017-09-26 07:00:00 23.7 3 Norte 8 Nordeste 0 -- -- 77
2017-09-26 06:00:00 23.6 2 Norte 6 Norte 0 -- -- 78
2017-09-26 05:00:00 23.9 4 Norte 7 Norte 0 -- -- 80
2017-09-26 04:00:00 23.7 3 Norte 6 Nordeste 0 -- -- 81
2017-09-26 03:00:00 23.5 3 Sudoeste 9 Oeste 0 -- -- 83
2017-09-26 02:00:00 23.6 4 Sudoeste 9 Sudoeste 0 -- -- 86
2017-09-26 01:00:00 24 0 Calma 10 Sudoeste 0 -- -- 82
2017-09-26 00:00:00 24.4 2 Oeste 13 Sudoeste 0 -- -- 74
2017-09-25 23:00:00 24.8 6 Sudoeste 14 Oeste 0 -- -- 73
2017-09-25 22:00:00 25.4 5 Noroeste 17 Sur 0 -- -- 68
2017-09-25 21:00:00 26.1 3 Norte 6 Norte 0 -- -- 64
2017-09-25 20:00:00 26.2 4 Norte 7 Noroeste 0 -- -- 65
2017-09-25 19:00:00 25.6 5 Sudeste 12 Sur 0 -- -- 72
2017-09-25 18:00:00 26.8 5 Sur 12 Sudeste 0 -- -- 66
2017-09-25 17:00:00 28.4 7 Sur 13 Sudoeste 0 -- -- 57
2017-09-25 16:00:00 28.8 5 Sudoeste 13 Sur 0 -- -- 54
2017-09-25 15:00:00 27.7 6 Sur 14 Sudoeste 0 -- -- 67
2017-09-25 14:00:00 28 9 Sur 20 Sur 0 -- -- 59
2017-09-25 13:00:00 28.3 9 Sur 26 Sur 0 -- -- 59
2017-09-25 12:00:00 26.7 9 Sudoeste 19 Sur 0 -- -- 64
2017-09-25 11:00:00 26.7 10 Sur 21 Sur 0 -- -- 65
2017-09-25 10:00:00 24.6 5 Sur 12 Sudeste 0 -- -- 82
2017-09-25 09:00:00 23.5 5 Sudoeste 15 Sur 0 -- -- 86
2017-09-25 08:00:00 23.4 0 Calma 8 Sur 0 -- -- 79
2017-09-25 07:00:00 23.3 4 Norte 7 Sur 0 -- -- 76
2017-09-25 06:00:00 23.2 3 Sudoeste 9 Norte 0 -- -- 78
2017-09-25 05:00:00 22.8 4 Norte 9 Noroeste 0 -- -- 80
2017-09-25 04:00:00 22.7 3 Norte 9 Norte 0 -- -- 86
2017-09-25 03:00:00 22.9 4 Sur 19 Sudeste 0 -- -- 87
2017-09-25 02:00:00 23.3 12 Sur 29 Sur 0 -- -- 84
2017-09-25 01:00:00 23.1 4 Norte 15 Sur 0 -- -- 84
2017-09-25 00:00:00 23.3 5 Noroeste 10 Noroeste 0 -- -- 81
2017-09-24 23:00:00 23.2 0 Calma 9 Norte 0 -- -- 82
2017-09-24 22:00:00 23.3 2 Este 6 Sur 0 -- -- 82
2017-09-24 21:00:00 23.4 3 Sur 21 Sur 0 -- -- 82
2017-09-24 20:00:00 23.7 4 Sur 13 Sur -- -- -- 81
2017-09-24 19:00:00 23.9 8 Sur 18 Sudeste 0 -- -- 81
2017-09-24 18:00:00 25 6 Sur 21 Sur 0 -- -- 77
2017-09-24 17:00:00 26.5 8 Sur 28 Sudeste 0 -- -- 68
2017-09-24 16:00:00 26.2 11 Sudeste 27 Sudeste 0 -- -- 70
2017-09-24 15:00:00 26.2 11 Sur 24 Sur 0 -- -- 70
2017-09-24 14:00:00 26 6 Sur 15 Sur 0 -- -- 70
2017-09-24 13:00:00 25.8 8 Sur 22 Sur 0 -- -- 71
2017-09-24 12:00:00 25.5 8 Sudeste 24 Sudeste 0 -- -- 69
2017-09-24 11:00:00 24.7 8 Sudeste 20 Sudeste 0 -- -- 72
2017-09-24 10:00:00 24 0 Calma 5 Sur 0 -- -- 71
2017-09-24 09:00:00 21.1 0 Calma 6 Norte 0 -- -- 82
2017-09-24 08:00:00 20.2 2 Norte 6 Norte 0 -- -- 83
2017-09-24 07:00:00 20.3 4 Norte 8 Norte 0 -- -- 82
2017-09-24 06:00:00 20.7 0 Calma 8 Norte 0 -- -- 80
2017-09-24 05:00:00 22 3 Norte 12 Sudeste 0 -- -- 75
2017-09-24 04:00:00 23 0 Calma 14 Sur 0 -- -- 74
2017-09-24 03:00:00 23.1 4 Sur 10 Norte 0 -- -- 74
2017-09-24 02:00:00 23.2 3 Sur 16 Nordeste 0 -- -- 72
2017-09-24 01:00:00 23.2 3 Norte 11 Norte 0 -- -- 73
2017-09-24 00:00:00 23.2 4 Norte 18 Noroeste 0 -- -- 72
2017-09-23 23:00:00 23.1 6 Norte 19 Noroeste 0 -- -- 73
2017-09-23 22:00:00 23 6 Norte 15 Noroeste 0 -- -- 73
2017-09-23 21:00:00 23.1 6 Norte 15 Norte 0 -- -- 73
2017-09-23 20:00:00 23.2 6 Norte 22 Noroeste 0 -- -- 72
2017-09-23 19:00:00 23.7 9 Norte 22 Norte 0 -- -- 68
2017-09-23 18:00:00 23.9 7 Norte 33 Norte 0 -- -- 68
2017-09-23 17:00:00 24.1 10 Norte 28 Nordeste 0 -- -- 66
2017-09-23 16:00:00 24.9 8 Norte 29 Nordeste 0 -- -- 63
2017-09-23 15:00:00 25.5 12 Norte 25 Nordeste 0 -- -- 62
2017-09-23 14:00:00 24.6 14 Norte 38 Norte 0 -- -- 65
2017-09-23 13:00:00 24.6 12 Norte 36 Nordeste 0 -- -- 64
2017-09-23 12:00:00 23.5 16 Norte 33 Norte 0 -- -- 69
2017-09-23 11:00:00 23.9 12 Norte 31 Nordeste 0 -- -- 66
2017-09-23 10:00:00 23.4 13 Norte 30 Norte 0 -- -- 67
2017-09-23 09:00:00 22.2 10 Norte 33 Nordeste 0 -- -- 71
2017-09-23 08:00:00 21.8 12 Norte 33 Norte 0 -- -- 72
2017-09-23 07:00:00 21.8 12 Norte 31 Norte 0 -- -- 72
2017-09-23 06:00:00 21.7 10 Norte 28 Norte 0 -- -- 71
2017-09-23 05:00:00 21.9 10 Norte 26 Nordeste 0 -- -- 70
2017-09-23 04:00:00 22 10 Norte 32 Norte 0 -- -- 71
2017-09-23 03:00:00 22.1 11 Norte 36 Norte 0 -- -- 73
2017-09-23 02:00:00 22.4 13 Norte 30 Norte 0 -- -- 69
2017-09-23 01:00:00 22.3 7 Norte 25 Norte 0 -- -- 69
2017-09-23 00:00:00 22.5 6 Nordeste 25 Norte 0 -- -- 71
2017-09-22 23:00:00 22.6 9 Norte 26 Norte 0 -- -- 71
2017-09-22 22:00:00 22.7 9 Norte 30 Noroeste 0 -- -- 70
2017-09-22 21:00:00 22.9 7 Norte 40 Noroeste 0 -- -- 70
2017-09-22 20:00:00 23.2 10 Norte 34 Norte 0 -- -- 70
2017-09-22 19:00:00 23.6 12 Norte 35 Norte 0 -- -- 68
2017-09-22 18:00:00 24.4 12 Norte 35 Noroeste 0 -- -- 64
2017-09-22 17:00:00 25.5 10 Norte 33 Noroeste 0 -- -- 61
2017-09-22 16:00:00 25.6 11 Norte 31 Noroeste 0 -- -- 59
2017-09-22 15:00:00 25.5 12 Norte 35 Noroeste 0 -- -- 59
2017-09-22 14:00:00 25 9 Norte 40 Norte 0 -- -- 61
2017-09-22 13:00:00 24.9 14 Norte 42 Norte 0 -- -- 60
2017-09-22 12:00:00 25 13 Norte 39 Norte 0 -- -- 59
2017-09-22 11:00:00 24.3 11 Norte 34 Nordeste 0 -- -- 64
2017-09-22 10:00:00 23 12 Norte 29 Norte 0 -- -- 68
2017-09-22 09:00:00 22.6 9 Norte 28 Norte 0 -- -- 65
2017-09-22 08:00:00 22.1 10 Norte 27 Norte 0 -- -- 71
2017-09-22 07:00:00 22.1 10 Norte 26 Nordeste 0 -- -- 75
2017-09-22 06:00:00 22.1 10 Norte 39 Norte 0 -- -- 69
2017-09-22 05:00:00 22.1 12 Norte 38 Norte 0 -- -- 73
2017-09-22 04:00:00 21.9 9 Norte 33 Nordeste 0 -- -- 76
2017-09-22 03:00:00 22.1 10 Norte 34 Nordeste 0 -- -- 77
2017-09-22 02:00:00 22.6 12 Norte 35 Noroeste 0 -- -- 71
2017-09-22 01:00:00 22.7 15 Norte 39 Norte 0 -- -- 69
2017-09-22 00:00:00 22.8 11 Norte 33 Noroeste 0 -- -- 70
2017-09-21 23:00:00 22.8 10 Norte 34 Nordeste 0 -- -- 70
2017-09-21 22:00:00 22.9 13 Norte 35 Norte 0 -- -- 69
2017-09-21 21:00:00 22.9 13 Norte 40 Norte 0 -- -- 71
2017-09-21 20:00:00 23.2 13 Norte 36 Norte 0 -- -- 69
2017-09-21 19:00:00 23.7 14 Norte 33 Nordeste 0 -- -- 67
2017-09-21 18:00:00 24.5 17 Norte 43 Norte 0 -- -- 65
2017-09-21 17:00:00 25.3 14 Norte 36 Norte 0 -- -- 62
2017-09-21 16:00:00 25.5 13 Norte 37 Nordeste 0 -- -- 62
2017-09-21 15:00:00 25.7 11 Norte 30 Norte 0 -- -- 61
2017-09-21 14:00:00 24.9 9 Norte 25 Norte 0 -- -- 65
2017-09-21 13:00:00 24.1 8 Norte 33 Norte 0 -- -- 67
2017-09-21 12:00:00 23.3 5 Norte 22 Norte 0 -- -- 69
2017-09-21 11:00:00 21.7 3 Sudoeste 32 Norte 0 -- -- 77
2017-09-21 10:00:00 23.5 9 Norte 33 Norte 0 -- -- 68
2017-09-21 09:00:00 23 9 Norte 35 Norte 0 -- -- 67
2017-09-21 08:00:00 22.8 10 Norte 33 Norte 0 -- -- 68
2017-09-21 07:00:00 22.7 10 Norte 33 Norte 0 -- -- 70
2017-09-21 06:00:00 22.8 11 Norte 35 Norte 0 -- -- 71
2017-09-21 05:00:00 22.8 5 Norte 25 Este 0 -- -- 71
2017-09-21 04:00:00 22.7 8 Norte 26 Norte 0 -- -- 72
2017-09-21 03:00:00 22.8 8 Nordeste 23 Nordeste 0 -- -- 70
2017-09-21 02:00:00 22.8 9 Norte 23 Norte 0 -- -- 70
2017-09-21 01:00:00 22.9 7 Nordeste 18 Norte 0 -- -- 69
2017-09-21 00:00:00 23 5 Norte 15 Nordeste 0 -- -- 68
2017-09-20 23:00:00 23.1 4 Norte 20 Norte 0 -- -- 70
2017-09-20 22:00:00 23.1 5 Norte 18 Norte 0 -- -- 69
2017-09-20 21:00:00 23.2 5 Nordeste 22 Noroeste 0 -- -- 70
2017-09-20 20:00:00 23.4 6 Norte 25 Norte 0 -- -- 69
2017-09-20 19:00:00 23.7 15 Norte 35 Norte 0 -- -- 67
2017-09-20 18:00:00 24.7 17 Norte 42 Norte 0 -- -- 64
2017-09-20 17:00:00 25.8 19 Norte 40 Norte 0 -- -- 60
2017-09-20 16:00:00 26.7 20 Norte 40 Noroeste 0 -- -- 54
2017-09-20 15:00:00 26.2 21 Norte 40 Norte 0 -- -- 56
2017-09-20 14:00:00 26.3 22 Norte 43 Norte 0 -- -- 58
2017-09-20 13:00:00 26.1 18 Norte 36 Norte 0 -- -- 60
2017-09-20 12:00:00 25.5 17 Norte 33 Norte 0 -- -- 64
2017-09-20 11:00:00 24.7 13 Norte 28 Norte 0 -- -- 68
2017-09-20 10:00:00 24.2 14 Norte 27 Nordeste 0 -- -- 67
2017-09-20 09:00:00 22.9 11 Norte 29 Norte 0 -- -- 74
2017-09-20 08:00:00 22.4 8 Norte 25 Norte 0 -- -- 75
2017-09-20 07:00:00 22.2 9 Norte 26 Norte 0 -- -- 75
2017-09-20 06:00:00 20.5 0 Calma 7 Norte 0 -- -- 79
2017-09-20 05:00:00 21.2 0 Calma 5 Sudoeste 0 -- -- 77
2017-09-20 04:00:00 21.8 0 Calma 8 Sudoeste 0 -- -- 74
2017-09-20 03:00:00 22.1 2 Sudoeste 9 Sudoeste 0 -- -- 71
2017-09-20 02:00:00 22.2 4 Oeste 10 Noroeste 0 -- -- 68
2017-09-20 01:00:00 21.2 0 Calma 6 Norte 0 -- -- 70
2017-09-20 00:00:00 21.6 3 Norte 6 Norte 0 -- -- 70